• Join FlightAware (Why Join?)
  • Login
  • US Flag 
06:11AM EDT


 

Airport Tracker/Info


-or-


 

Live Flight TrackerFlight Track Log ✈ BJS542 ✈ 28-Apr-2013 ✈ KJFK - KTLH

Flight Track Log - Related Links

Times and Time Zones

All times are in EDT time to prevent confusion due to time zone crossing. See the BJS542 flight status page for this flight to view local times or setup timezone preferences in your user account.

Time Position Orientation Groundspeed Altitude Reporting Facility
EDT Latitude Longitude Course Direction KTS MPH feet Rate Location/Type
05:27PM 40.6108 -73.7756 178° South 192 221 3,200  Level New York Center
05:28PM 40.5444 -73.7725 178° South 245 282 5,000 2,700 Climbing New York Center
05:29PM 40.4628 -73.7853 187° South 288 331 8,600 3,900 Climbing New York Center
05:29PM 40.4500 -73.8000 221° Southwest 289 333 9,800 1,860 Climbing New York TRACON
05:30PM 40.4167 -73.8833 242° Southwest 287 330 11,000 600 Climbing New York TRACON
05:31PM 40.3833 -73.9833 246° West 316 364 11,000  Level New York TRACON
05:32PM 40.3572 -74.0694 248° West 335 386 11,000 1,020 Level New York Center
05:33PM 40.3231 -74.1711 246° West 335 386 12,900 2,280 Climbing New York Center
05:34PM 40.2756 -74.2939 243° Southwest 335 386 15,600 1,980 Climbing New York Center
05:35PM 40.2347 -74.4089 245° Southwest 346 398 16,900 1,200 Climbing New York Center
05:36PM 40.1997 -74.5264 249° West 346 398 18,100 1,980 Climbing New York Center
05:37PM 40.1919 -74.6403 265° West 358 412 20,900 3,000 Climbing New York Center
05:38PM 40.1789 -74.7781 263° West 353 406 24,200 3,000 Climbing New York Center
05:39PM 40.1703 -74.9025 265° West 348 400 27,000 2,460 Climbing New York Center
05:40PM 40.1594 -75.0378 264° West 354 407 29,100 1,980 Climbing New York Center
05:41PM 40.1500 -75.1783 265° West 369 425 31,000 1,920 Climbing New York Center
05:42PM 40.1389 -75.3081 264° West 395 455 33,000 1,980 Climbing New York Center
05:43PM 40.0900 -75.4350 243° Southwest 396 456 35,000 1,980 Climbing New York Center
05:44PM 40.0150 -75.5411 227° Southwest 396 456 37,100 1,980 Climbing New York Center
05:45PM 39.9400 -75.6442 227° Southwest 396 456 39,100 1,440 Climbing New York Center
05:46PM 39.8689 -75.7475 228° Southwest 389 448 40,100 900 Climbing New York Center
05:47PM 39.8058 -75.8567 233° Southwest 389 448 40,900 720 Climbing New York Center
05:48PM 39.7364 -75.9650 230° Southwest 389 448 41,600 600 Climbing New York Center
05:49PM 39.6667 -76.0786 231° Southwest 400 460 42,200 600 Climbing New York Center
05:50PM 39.5767 -76.2189 230° Southwest 413 475 43,000 360 Climbing Washington Center
05:51PM 39.5031 -76.3367 231° Southwest 420 483 43,000  Level Washington Center
05:52PM 39.4272 -76.4514 229° Southwest 433 498 43,000  Level Washington Center
05:53PM 39.3533 -76.5550 227° Southwest 433 498 43,000  Level Washington Center
05:54PM 39.2775 -76.6722 230° Southwest 427 491 43,000  Level Washington Center
05:55PM 39.2033 -76.7889 231° Southwest 427 491 43,000  Level Washington Center
05:56PM 39.1292 -76.9053 231° Southwest 427 491 43,000  Level Washington Center
05:57PM 39.0550 -77.0217 231° Southwest 427 491 43,000  Level Washington Center
05:58PM 38.9683 -77.1186 221° Southwest 427 491 43,000  Level Washington Center
05:59PM 38.8794 -77.2183 221° Southwest 427 491 43,000  Level Washington Center
06:00PM 38.7886 -77.3122 219° Southwest 427 491 43,000  Level Washington Center
06:01PM 38.6975 -77.4136 221° Southwest 433 498 43,000  Level Washington Center
06:02PM 38.5997 -77.5231 221° Southwest 433 498 43,000  Level Washington Center
06:03PM 38.5128 -77.6189 221° Southwest 433 498 43,000  Level Washington Center
06:04PM 38.4233 -77.7172 221° Southwest 433 498 43,000  Level Washington Center
06:05PM 38.3361 -77.8125 221° Southwest 433 498 43,000  Level Washington Center
06:06PM 38.2447 -77.9078 219° Southwest 433 498 43,000  Level Washington Center
06:07PM 38.1531 -78.0053 220° Southwest 433 498 43,000  Level Washington Center
06:08PM 38.0614 -78.1025 220° Southwest 433 498 43,000  Level Washington Center
06:09PM 37.9761 -78.1944 220° Southwest 427 491 43,000  Level Washington Center
06:10PM 37.8781 -78.2858 216° Southwest 427 491 43,000  Level Washington Center
06:11PM 37.7908 -78.3667 216° Southwest 434 499 43,000  Level Washington Center
06:12PM 37.6969 -78.4578 218° Southwest 434 499 43,000  Level Washington Center
06:13PM 37.5967 -78.5511 216° Southwest 440 506 43,000  Level Washington Center
06:14PM 37.5006 -78.6389 216° Southwest 440 506 43,000  Level Washington Center
06:15PM 37.4044 -78.7292 217° Southwest 440 506 43,000  Level Washington Center
06:16PM 37.2994 -78.8292 217° Southwest 445 512 43,000  Level Washington Center
06:17PM 37.2011 -78.9164 215° Southwest 440 506 43,000  Level Washington Center
06:18PM 37.1047 -79.0086 217° Southwest 440 506 43,000  Level Washington Center
06:19PM 37.0061 -79.1006 217° Southwest 440 506 43,000  Level Washington Center
06:20PM 36.9094 -79.1897 216° Southwest 440 506 43,000  Level Washington Center
06:21PM 36.8214 -79.2711 217° Southwest 445 512 43,000  Level Washington Center
06:22PM 36.7228 -79.3597 216° Southwest 445 512 43,000  Level Washington Center
06:23PM 36.6261 -79.4483 216° Southwest 445 512 43,000  Level Washington Center
06:24PM 36.5269 -79.5389 216° Southwest 440 506 43,000  Level Washington Center
06:26PM 36.3406 -79.7033 215° Southwest 443 510 43,000  Level Atlanta Center
06:27PM 36.2436 -79.7936 217° Southwest 438 504 43,000  Level Atlanta Center
06:28PM 36.1464 -79.8811 216° Southwest 438 504 43,000  Level Atlanta Center
06:29PM 36.0389 -79.9739 215° Southwest 438 504 43,000  Level Atlanta Center
06:30PM 35.9283 -80.0333 204° Southwest 432 497 43,000  Level Atlanta Center
06:31PM 35.8175 -80.0900 203° Southwest 437 503 43,000  Level Atlanta Center
06:32PM 35.7044 -80.1464 202° Southwest 437 503 43,000  Level Atlanta Center
06:33PM 35.5936 -80.2028 202° Southwest 437 503 43,000  Level Atlanta Center
06:34PM 35.4828 -80.2592 203° Southwest 432 497 43,000  Level Atlanta Center
06:35PM 35.3819 -80.3069 201° Southwest 432 497 43,000  Level Atlanta Center
06:36PM 35.2731 -80.3628 203° Southwest 432 497 43,000  Level Atlanta Center
06:37PM 35.1661 -80.4183 203° Southwest 432 497 43,000  Level Atlanta Center
06:38PM 34.9636 -80.5167 202° Southwest 441 507 43,000  Level Jacksonville Center
06:39PM 34.8539 -80.5728 203° Southwest 436 502 43,000  Level Jacksonville Center
06:40PM 34.7506 -80.6261 203° Southwest 423 487 43,000  Level Jacksonville Center
06:41PM 34.6411 -80.6769 201° Southwest 417 480 43,000  Level Jacksonville Center
06:42PM 34.5375 -80.7275 202° Southwest 432 497 43,000  Level Jacksonville Center
06:43PM 34.4300 -80.7831 203° Southwest 432 497 43,000  Level Jacksonville Center
06:44PM 34.3206 -80.8411 204° Southwest 432 497 43,000  Level Jacksonville Center
06:45PM 34.2086 -80.8914 200° South 408 470 43,000  Level Jacksonville Center
06:46PM 34.0989 -80.9414 201° Southwest 413 475 43,000  Level Jacksonville Center
06:47PM 33.9911 -80.9914 201° Southwest 413 475 43,000  Level Jacksonville Center
06:48PM 33.8894 -81.0386 201° Southwest 419 482 43,000  Level Jacksonville Center
06:49PM 33.7819 -81.0908 202° Southwest 424 488 43,000  Level Jacksonville Center
06:50PM 33.6678 -81.1506 204° Southwest 418 481 43,000  Level Jacksonville Center
06:51PM 33.5622 -81.2050 203° Southwest 418 481 43,000  Level Jacksonville Center
06:52PM 33.4564 -81.2569 202° Southwest 418 481 43,000  Level Jacksonville Center
06:53PM 33.3486 -81.3086 202° Southwest 418 481 43,000 -60 Level Jacksonville Center
06:54PM 33.2428 -81.3603 202° Southwest 413 475 42,900  Descending Jacksonville Center
06:55PM 33.1347 -81.4117 202° Southwest 413 475 43,000  Climbing Jacksonville Center
06:56PM 33.0311 -81.4628 202° Southwest 413 475 43,000  Level Jacksonville Center
06:57PM 32.9314 -81.5117 202° Southwest 418 481 43,000  Level Jacksonville Center
06:58PM 32.8275 -81.5625 202° Southwest 418 481 43,000  Level Jacksonville Center
06:59PM 32.7217 -81.6136 202° Southwest 413 475 43,000  Level Jacksonville Center
07:00PM 32.6075 -81.6694 202° Southwest 408 470 43,000  Level Jacksonville Center
07:01PM 32.5139 -81.7150 202° Southwest 408 470 43,000  Level Jacksonville Center
07:02PM 32.3975 -81.7681 201° Southwest 415 478 43,000  Level Jacksonville Center
07:03PM 32.2914 -81.8211 203° Southwest 415 478 43,000  Level Jacksonville Center
07:04PM 32.1978 -81.8639 201° Southwest 415 478 43,000  Level Jacksonville Center
07:05PM 32.0833 -81.9192 202° Southwest 409 471 43,000  Level Jacksonville Center
07:06PM 32.0025 -81.9886 216° Southwest 408 470 43,000  Level Jacksonville Center
07:07PM 31.9281 -82.0969 231° Southwest 397 457 43,000  Level Jacksonville Center
07:08PM 31.8597 -82.2003 232° Southwest 402 463 43,000  Level Jacksonville Center
07:09PM 31.8019 -82.2889 233° Southwest 395 455 43,000 -60 Level Jacksonville Center
07:10PM 31.7356 -82.3894 232° Southwest 395 455 42,900 -1,380 Descending Jacksonville Center
07:11PM 31.6689 -82.4875 231° Southwest 395 455 40,300 -2,700 Descending Jacksonville Center
07:12PM 31.5983 -82.5950 232° Southwest 400 460 37,600 -2,700 Descending Jacksonville Center
07:13PM 31.5253 -82.7000 231° Southwest 410 472 35,000 -2,700 Descending Jacksonville Center
07:14PM 31.4503 -82.8122 232° Southwest 423 487 32,200 -2,820 Descending Jacksonville Center
07:15PM 31.3689 -82.9339 232° Southwest 436 502 29,400 -2,820 Descending Jacksonville Center
07:16PM 31.2978 -83.0433 233° Southwest 444 511 26,600 -2,700 Descending Jacksonville Center
07:17PM 31.2225 -83.1500 230° Southwest 439 505 24,100 -2,040 Descending Jacksonville Center
07:18PM 31.1575 -83.2469 232° Southwest 415 478 22,600 -1,800 Descending Jacksonville Center
07:19PM 31.0883 -83.3511 232° Southwest 410 472 20,600 -2,040 Descending Jacksonville Center
07:20PM 31.0211 -83.4503 232° Southwest 404 465 18,600 -1,980 Descending Jacksonville Center
07:21PM 30.9558 -83.5417 230° Southwest 392 451 16,700 -1,980 Descending Jacksonville Center
07:22PM 30.8928 -83.6333 231° Southwest 380 437 14,700 -2,040 Descending Jacksonville Center
07:23PM 30.8358 -83.7175 232° Southwest 364 419 12,700 -1,740 Descending Jacksonville Center
07:24PM 30.7747 -83.8067 231° Southwest 352 405 11,300 -900 Descending Jacksonville Center
07:25PM 30.7136 -83.8931 231° Southwest 347 399 11,000 -300 Descending Jacksonville Center
07:26PM 30.6564 -83.9769 232° Southwest 347 399 10,700 -780 Descending Jacksonville Center
07:27PM 30.6119 -84.0511 235° Southwest 326 375 9,500 -1,560 Descending Jacksonville Center
07:28PM 30.5819 -84.1328 247° West 295 339 7,600 -1,980 Descending Jacksonville Center
07:29PM 30.5519 -84.2097 246° West 278 320 5,600 -1,980 Descending Jacksonville Center
07:30PM 30.5117 -84.2767 235° Southwest 278 320 3,700 -1,440 Descending Jacksonville Center
07:31PM 30.4731 -84.3603 242° Southwest 273 314 2,800 -900 Descending Jacksonville Center
07:33PM 30.3967 -84.3509 235° Southwest  Level Estimated
07:40PM 30.3967 -84.3509 235° Southwest  Level Estimated
07:41PM 30.3967 -84.3509 235° Southwest  Level Estimated